createdAt,value
2022-10-29T00:02:30.963Z,98794.19
2022-10-29T00:05:33.358Z,98798.53
2022-10-29T00:08:40.912Z,98787.00
2022-10-29T00:11:43.004Z,98783.34
2022-10-29T00:14:45.073Z,98789.16
2022-10-29T00:17:47.142Z,98795.88
2022-10-29T00:20:49.775Z,98805.22
2022-10-29T00:23:52.165Z,98823.50
2022-10-29T00:26:54.280Z,98851.09
2022-10-29T00:29:56.670Z,98838.53
2022-10-29T00:32:58.831Z,98841.94
2022-10-29T00:36:16.224Z,98849.56
2022-10-29T00:39:18.480Z,98848.91
2022-10-29T00:42:20.536Z,98850.44
2022-10-29T00:45:22.680Z,98830.25
2022-10-29T00:48:25.324Z,98833.47
2022-10-29T00:51:27.441Z,98841.69
2022-10-29T00:54:30.698Z,98829.38
2022-10-29T00:57:48.789Z,98832.50
2022-10-29T01:00:50.936Z,98843.84
2022-10-29T01:03:54.252Z,98834.38
2022-10-29T01:06:56.331Z,98836.41
2022-10-29T01:09:58.426Z,98845.78
2022-10-29T01:14:07.975Z,98825.06
2022-10-29T01:18:06.221Z,98834.38
2022-10-29T01:21:35.625Z,98829.59
2022-10-29T01:25:15.446Z,98836.34
2022-10-29T01:29:08.582Z,98830.63
2022-10-29T01:32:15.465Z,98832.69
2022-10-29T01:35:25.606Z,98813.66
2022-10-29T01:38:48.659Z,98816.59
2022-10-29T01:42:23.916Z,98818.59
2022-10-29T01:45:39.040Z,98805.84
2022-10-29T01:48:44.624Z,98798.38
2022-10-29T01:51:47.336Z,98811.25
2022-10-29T01:54:49.500Z,98810.28
2022-10-29T01:57:51.655Z,98809.59
2022-10-29T02:01:31.050Z,98815.34
2022-10-29T02:04:43.769Z,98823.19
2022-10-29T02:08:27.243Z,98822.97
2022-10-29T02:12:17.275Z,98816.66
2022-10-29T02:15:37.705Z,98820.91
2022-10-29T02:18:48.829Z,98810.13
2022-10-29T02:21:51.614Z,98813.09
2022-10-29T02:24:53.676Z,98809.06
2022-10-29T02:27:56.206Z,98814.84
2022-10-29T02:30:58.431Z,98807.56
2022-10-29T02:34:00.503Z,98807.38
2022-10-29T02:37:02.568Z,98797.09
2022-10-29T02:40:05.217Z,98798.44
2022-10-29T02:43:07.361Z,98788.88
2022-10-29T02:46:18.258Z,98785.00
2022-10-29T02:49:20.328Z,98784.47
2022-10-29T02:52:22.417Z,98776.19
2022-10-29T02:55:24.565Z,98778.03
2022-10-29T02:58:26.664Z,98773.53
2022-10-29T03:01:28.948Z,98764.28
2022-10-29T03:04:31.143Z,98761.72
2022-10-29T03:07:37.314Z,98772.63
2022-10-29T03:10:39.431Z,98769.66
2022-10-29T03:13:41.599Z,98775.22
2022-10-29T03:16:43.661Z,98767.16
2022-10-29T03:19:45.733Z,98771.47
2022-10-29T03:22:47.814Z,98783.50
2022-10-29T03:25:55.906Z,98777.22
2022-10-29T03:28:58.482Z,98776.75
2022-10-29T03:32:00.586Z,98772.13
2022-10-29T03:35:02.658Z,98775.69
2022-10-29T03:38:04.772Z,98774.25
2022-10-29T03:41:10.504Z,98778.34
2022-10-29T03:44:12.856Z,98776.69
2022-10-29T03:47:14.928Z,98775.69
2022-10-29T03:50:17.202Z,98771.91
2022-10-29T03:53:19.260Z,98777.88
2022-10-29T03:56:21.331Z,98763.31
2022-10-29T03:59:23.407Z,98765.13
2022-10-29T04:02:25.675Z,98763.81
2022-10-29T04:05:27.852Z,98756.34
2022-10-29T04:08:29.967Z,98756.00
2022-10-29T04:11:32.063Z,98770.03
2022-10-29T04:14:34.505Z,98766.09
2022-10-29T04:17:36.693Z,98757.13
2022-10-29T04:21:23.074Z,98757.63
2022-10-29T04:30:45.912Z,98767.31
2022-10-29T04:33:48.061Z,98759.59
2022-10-29T04:36:52.207Z,98765.97
2022-10-29T04:39:54.443Z,98758.00
2022-10-29T04:42:56.873Z,98760.09
2022-10-29T04:45:59.516Z,98761.59
2022-10-29T04:49:01.700Z,98753.47
2022-10-29T04:52:04.052Z,98752.44
2022-10-29T04:55:06.477Z,98750.06
2022-10-29T04:58:14.995Z,98746.97
2022-10-29T05:01:17.189Z,98744.56
2022-10-29T05:04:19.448Z,98754.50
2022-10-29T05:07:21.565Z,98743.91
2022-10-29T05:10:25.274Z,98754.00
2022-10-29T05:13:27.371Z,98747.94
2022-10-29T05:16:29.474Z,98738.84
2022-10-29T05:19:31.587Z,98733.78
2022-10-29T05:22:33.679Z,98747.63
2022-10-29T05:25:37.921Z,98753.28
2022-10-29T05:28:40.037Z,98744.88
2022-10-29T05:31:42.169Z,98733.31
2022-10-29T05:34:44.487Z,98730.34
2022-10-29T05:37:53.900Z,98729.91
2022-10-29T05:40:59.108Z,98728.16
2022-10-29T05:44:01.256Z,98726.06
2022-10-29T05:47:03.969Z,98733.03
2022-10-29T05:50:06.709Z,98722.25
2022-10-29T05:53:12.631Z,98730.72
2022-10-29T05:56:14.930Z,98728.81
2022-10-29T05:59:17.099Z,98722.59
2022-10-29T06:02:19.384Z,98736.19
2022-10-29T06:05:22.088Z,98732.59
2022-10-29T06:08:24.233Z,98729.09
2022-10-29T06:11:26.407Z,98732.28
2022-10-29T06:14:28.570Z,98728.31
2022-10-29T06:17:30.742Z,98707.28
2022-10-29T06:20:32.911Z,98700.44
2022-10-29T06:23:35.109Z,98683.06
2022-10-29T06:26:37.534Z,98692.44
2022-10-29T06:29:39.769Z,98679.22
2022-10-29T06:32:41.856Z,98671.25
2022-10-29T06:35:44.033Z,98664.31
2022-10-29T06:38:46.160Z,98662.16
2022-10-29T06:41:48.316Z,98662.56
2022-10-29T06:44:54.051Z,98658.03
2022-10-29T06:47:56.622Z,98635.63
2022-10-29T06:51:00.318Z,98650.31
2022-10-29T06:54:02.445Z,98652.56
2022-10-29T06:57:04.576Z,98666.56
2022-10-29T07:00:08.663Z,98677.00
2022-10-29T07:03:15.168Z,98676.00
2022-10-29T07:06:17.339Z,98657.41
2022-10-29T07:09:19.525Z,98673.09
2022-10-29T07:12:21.728Z,98678.00
2022-10-29T07:15:27.359Z,98677.09
2022-10-29T07:18:30.493Z,98656.44
2022-10-29T07:21:32.621Z,98643.69
2022-10-29T07:24:34.785Z,98640.53
2022-10-29T07:27:36.939Z,98659.97
2022-10-29T07:30:39.289Z,98674.75
2022-10-29T07:33:41.401Z,98671.03
2022-10-29T07:36:43.533Z,98667.53
2022-10-29T07:39:45.695Z,98670.03
2022-10-29T07:42:53.133Z,98672.56
2022-10-29T07:45:55.842Z,98673.91
2022-10-29T07:48:57.952Z,98671.00
2022-10-29T07:52:00.025Z,98681.38
2022-10-29T07:55:02.874Z,98675.09
2022-10-29T07:58:08.104Z,98672.16
2022-10-29T08:01:10.260Z,98675.97
2022-10-29T08:04:12.426Z,98688.53
2022-10-29T08:07:14.497Z,98688.88
2022-10-29T08:10:16.981Z,98709.34
2022-10-29T08:13:19.042Z,98726.78
2022-10-29T08:16:21.108Z,98744.38
2022-10-29T08:19:23.250Z,98750.16
2022-10-29T08:22:25.400Z,98763.28
2022-10-29T08:25:27.549Z,98771.47
2022-10-29T08:28:33.172Z,98770.25
2022-10-29T08:31:37.655Z,98766.75
2022-10-29T08:34:39.725Z,98765.13
2022-10-29T08:37:45.183Z,98762.72
2022-10-29T08:41:08.275Z,98760.31
2022-10-29T08:44:28.771Z,98752.41
2022-10-29T08:47:30.976Z,98740.25
2022-10-29T08:50:41.213Z,98747.38
2022-10-29T08:53:54.221Z,98743.19
2022-10-29T08:57:14.013Z,98733.91
2022-10-29T09:00:19.473Z,98727.84
2022-10-29T09:03:21.547Z,98715.78
2022-10-29T09:06:29.436Z,98721.25
2022-10-29T09:09:51.261Z,98720.56
2022-10-29T09:13:46.073Z,98727.63
2022-10-29T09:16:56.953Z,98718.56
2022-10-29T09:20:02.034Z,98720.41
2022-10-29T09:23:09.536Z,98708.50
2022-10-29T09:26:37.373Z,98698.00
2022-10-29T09:29:54.163Z,98701.88
2022-10-29T09:33:07.462Z,98695.28
2022-10-29T09:36:21.377Z,98684.66
2022-10-29T09:39:37.347Z,98689.97
2022-10-29T09:42:40.334Z,98687.00
2022-10-29T09:46:15.345Z,98690.06
2022-10-29T09:49:55.422Z,98677.94
2022-10-29T09:52:57.835Z,98667.47
2022-10-29T09:56:00.180Z,98665.03
2022-10-29T09:59:40.813Z,98655.94
2022-10-29T10:03:04.288Z,98644.41
2022-10-29T10:06:10.525Z,98642.66
2022-10-29T10:09:12.578Z,98643.38
2022-10-29T10:12:14.627Z,98647.97
2022-10-29T10:15:16.549Z,98652.56
2022-10-29T10:18:26.470Z,98637.22
2022-10-29T10:21:30.154Z,98638.75
2022-10-29T10:24:36.791Z,98628.00
2022-10-29T10:27:38.817Z,98619.00
2022-10-29T10:30:43.076Z,98614.66
2022-10-29T10:33:52.701Z,98611.28
2022-10-29T10:37:10.229Z,98621.41
2022-10-29T10:40:24.894Z,98620.47
2022-10-29T10:43:27.055Z,98630.78
2022-10-29T10:46:35.350Z,98627.34
2022-10-29T10:49:38.153Z,98624.72
2022-10-29T10:52:40.206Z,98610.56
2022-10-29T10:55:45.843Z,98609.00
2022-10-29T10:59:07.993Z,98602.78
2022-10-29T11:02:24.033Z,98603.50
2022-10-29T11:05:33.918Z,98600.53
2022-10-29T11:08:43.210Z,98591.09
2022-10-29T11:11:59.414Z,98590.94
2022-10-29T11:15:10.161Z,98586.19
2022-10-29T11:21:30.065Z,98571.16
2022-10-29T11:25:21.353Z,98569.56
2022-10-29T11:29:19.299Z,98577.78
2022-10-29T11:32:39.152Z,98557.13
2022-10-29T11:35:48.164Z,98557.47
2022-10-29T11:39:19.718Z,98541.94
2022-10-29T11:42:21.817Z,98536.81
2022-10-29T11:45:59.492Z,98527.41
2022-10-29T11:49:14.569Z,98518.63
2022-10-29T11:52:40.032Z,98518.38
2022-10-29T11:55:57.593Z,98520.28
2022-10-29T12:00:00.978Z,98512.63
2022-10-29T12:03:24.558Z,98506.00
2022-10-29T12:07:13.523Z,98490.47
2022-10-29T12:10:52.217Z,98495.47
2022-10-29T12:14:00.022Z,98483.91
2022-10-29T12:17:10.902Z,98468.53
2022-10-29T12:20:51.133Z,98465.06
2022-10-29T12:24:27.820Z,98458.59
2022-10-29T12:27:47.181Z,98454.00
2022-10-29T12:31:19.868Z,98456.72
2022-10-29T12:34:37.837Z,98445.97
2022-10-29T12:38:20.897Z,98446.59
2022-10-29T12:41:43.409Z,98438.88
2022-10-29T12:45:26.140Z,98432.25
2022-10-29T12:48:53.130Z,98426.31
2022-10-29T12:52:02.622Z,98422.75
2022-10-29T12:55:06.341Z,98420.22
2022-10-29T12:58:46.677Z,98414.00
2022-10-29T13:05:10.960Z,98415.72
2022-10-29T13:08:26.629Z,98403.38
2022-10-29T13:11:57.801Z,98407.94
2022-10-29T13:15:09.813Z,98405.09
2022-10-29T13:18:29.360Z,98406.09
2022-10-29T13:22:14.370Z,98409.69
2022-10-29T13:25:41.583Z,98412.03
2022-10-29T13:28:46.935Z,98404.16
2022-10-29T13:31:49.830Z,98398.63
2022-10-29T13:35:03.190Z,98382.56
2022-10-29T13:38:13.746Z,98378.84
2022-10-29T13:41:27.821Z,98370.47
2022-10-29T13:44:29.890Z,98358.75
2022-10-29T13:47:31.985Z,98350.06
2022-10-29T13:50:35.216Z,98345.19
2022-10-29T13:53:55.731Z,98341.59
2022-10-29T13:57:12.956Z,98343.13
2022-10-29T14:00:19.940Z,98341.53
2022-10-29T14:03:41.569Z,98341.13
2022-10-29T14:06:43.617Z,98335.94
2022-10-29T14:09:52.323Z,98336.28
2022-10-29T14:13:41.395Z,98334.78
2022-10-29T14:16:43.580Z,98329.66
2022-10-29T14:19:50.876Z,98317.63
2022-10-29T14:22:53.268Z,98315.81
2022-10-29T14:25:57.199Z,98314.69
2022-10-29T14:29:34.902Z,98307.50
2022-10-29T14:32:39.127Z,98303.03
2022-10-29T14:35:41.189Z,98306.84
2022-10-29T14:38:52.474Z,98292.22
2022-10-29T14:41:57.849Z,98289.91
2022-10-29T14:45:03.041Z,98285.44
2022-10-29T14:48:10.128Z,98285.91
2022-10-29T14:51:19.988Z,98291.41
2022-10-29T14:54:40.806Z,98285.16
2022-10-29T14:57:46.041Z,98290.47
2022-10-29T15:01:14.940Z,98290.56
2022-10-29T15:04:28.894Z,98299.25
2022-10-29T15:07:35.625Z,98292.56
2022-10-29T15:10:54.560Z,98279.78
2022-10-29T15:13:56.588Z,98292.06
2022-10-29T15:16:59.103Z,98288.97
2022-10-29T15:20:06.497Z,98272.47
2022-10-29T15:23:34.382Z,98280.53
2022-10-29T15:26:36.650Z,98285.75
2022-10-29T15:29:43.143Z,98284.75
2022-10-29T15:32:45.577Z,98289.78
2022-10-29T15:35:58.534Z,98287.13
2022-10-29T15:39:19.209Z,98299.25
2022-10-29T15:42:28.688Z,98296.94
2022-10-29T15:45:30.826Z,98289.84
2022-10-29T15:48:39.311Z,98266.38
2022-10-29T15:51:41.382Z,98266.94
2022-10-29T15:54:43.636Z,98262.78
2022-10-29T15:57:51.644Z,98245.69
2022-10-29T16:00:53.765Z,98230.38
2022-10-29T16:03:55.877Z,98241.72
2022-10-29T16:06:57.949Z,98223.75
2022-10-29T16:10:05.423Z,98235.06
2022-10-29T16:13:10.866Z,98229.53
2022-10-29T16:16:18.144Z,98240.38
2022-10-29T16:19:20.284Z,98245.97
2022-10-29T16:22:31.410Z,98253.88
2022-10-29T16:25:33.523Z,98244.97
2022-10-29T16:28:35.576Z,98237.22
2022-10-29T16:31:37.624Z,98230.38
2022-10-29T16:34:39.684Z,98222.19
2022-10-29T16:37:41.775Z,98212.72
2022-10-29T16:40:43.892Z,98201.44
2022-10-29T16:43:46.283Z,98208.78
2022-10-29T16:46:48.329Z,98210.06
2022-10-29T16:49:50.400Z,98214.44
2022-10-29T16:53:02.258Z,98209.44
2022-10-29T16:56:04.848Z,98213.66
2022-10-29T16:59:07.010Z,98220.59
2022-10-29T17:02:11.033Z,98211.91
2022-10-29T17:05:13.411Z,98215.72
2022-10-29T17:08:15.511Z,98208.22
2022-10-29T17:11:17.708Z,98203.53
2022-10-29T17:14:19.793Z,98208.28
2022-10-29T17:17:21.846Z,98203.16
2022-10-29T17:20:23.911Z,98208.44
2022-10-29T17:23:25.997Z,98193.22
2022-10-29T17:26:28.015Z,98188.13
2022-10-29T17:29:33.818Z,98183.09
2022-10-29T17:32:38.403Z,98191.41
2022-10-29T17:35:40.563Z,98192.16
2022-10-29T17:38:42.640Z,98181.81
2022-10-29T17:41:44.678Z,98190.94
2022-10-29T17:44:46.726Z,98200.69
2022-10-29T17:47:49.185Z,98197.00
2022-10-29T17:50:58.569Z,98194.66
2022-10-29T17:54:00.624Z,98196.31
2022-10-29T17:57:02.670Z,98203.44
2022-10-29T18:00:05.416Z,98199.22
2022-10-29T18:03:09.215Z,98195.22
2022-10-29T18:06:13.896Z,98203.00
2022-10-29T18:09:21.178Z,98200.22
2022-10-29T18:12:23.540Z,98199.44
2022-10-29T18:15:25.650Z,98207.97
2022-10-29T18:18:27.679Z,98212.84
2022-10-29T18:21:31.097Z,98210.13
2022-10-29T18:24:33.135Z,98198.25
2022-10-29T18:27:35.241Z,98198.25
2022-10-29T18:30:37.281Z,98196.44
2022-10-29T18:33:39.628Z,98194.03
2022-10-29T18:36:42.964Z,98206.81
2022-10-29T18:39:45.021Z,98220.13
2022-10-29T18:42:47.109Z,98213.47
2022-10-29T18:46:00.366Z,98233.69
2022-10-29T18:49:02.449Z,98227.03
2022-10-29T18:52:04.605Z,98218.22
2022-10-29T18:55:07.249Z,98214.25
2022-10-29T18:58:09.349Z,98210.25
2022-10-29T19:01:23.213Z,98203.06
2022-10-29T19:04:25.406Z,98199.63
2022-10-29T19:07:27.461Z,98215.84
2022-10-29T19:10:29.617Z,98217.19
2022-10-29T19:13:31.919Z,98218.50
2022-10-29T19:16:34.104Z,98216.91
2022-10-29T19:19:36.121Z,98220.91
2022-10-29T19:22:38.148Z,98232.84
2022-10-29T19:25:41.080Z,98233.72
2022-10-29T19:28:43.914Z,98228.38
2022-10-29T19:31:46.628Z,98237.19
2022-10-29T19:34:48.813Z,98234.75
2022-10-29T19:37:50.946Z,98231.84
2022-10-29T19:40:53.292Z,98251.81
2022-10-29T19:44:00.092Z,98247.28
2022-10-29T19:47:02.173Z,98241.41
2022-10-29T19:50:05.368Z,98241.69
2022-10-29T19:53:07.439Z,98241.44
2022-10-29T19:56:14.313Z,98237.69
2022-10-29T19:59:16.358Z,98241.16
2022-10-29T20:02:18.424Z,98239.78
2022-10-29T20:05:21.031Z,98235.56
2022-10-29T20:08:23.388Z,98241.66
2022-10-29T20:11:25.443Z,98242.75
2022-10-29T20:14:29.167Z,98239.00
2022-10-29T20:17:31.689Z,98234.16
2022-10-29T20:20:33.785Z,98237.34
2022-10-29T20:23:35.845Z,98225.34
2022-10-29T20:26:37.921Z,98239.78
2022-10-29T20:29:39.945Z,98234.41
2022-10-29T20:32:42.039Z,98239.16
2022-10-29T20:35:44.103Z,98249.63
2022-10-29T20:38:52.582Z,98247.75
2022-10-29T20:41:54.627Z,98240.31
2022-10-29T20:44:56.699Z,98245.13
2022-10-29T20:48:01.910Z,98247.19
2022-10-29T20:51:04.341Z,98241.31
2022-10-29T20:54:06.580Z,98245.28
2022-10-29T20:57:08.674Z,98233.09
2022-10-29T21:00:11.402Z,98236.78
2022-10-29T21:03:14.679Z,98231.44
2022-10-29T21:06:17.626Z,98240.81
2022-10-29T21:09:19.910Z,98241.84
2022-10-29T21:12:23.456Z,98234.94
2022-10-29T21:15:25.582Z,98234.44
2022-10-29T21:18:27.646Z,98237.34
2022-10-29T21:21:30.200Z,98238.41
2022-10-29T21:24:32.310Z,98237.06
2022-10-29T21:27:34.388Z,98241.16
2022-10-29T21:30:36.606Z,98239.75
2022-10-29T21:33:38.669Z,98235.03
2022-10-29T21:36:40.698Z,98219.00
2022-10-29T21:39:42.761Z,98233.44
2022-10-29T21:42:44.818Z,98225.69
2022-10-29T21:45:46.897Z,98227.84
2022-10-29T21:48:48.918Z,98233.84
2022-10-29T21:51:51.029Z,98251.22
2022-10-29T21:54:53.068Z,98254.59
2022-10-29T21:57:55.388Z,98252.44
2022-10-29T22:01:14.369Z,98252.78
2022-10-29T22:04:16.591Z,98249.69
2022-10-29T22:07:18.645Z,98258.47
2022-10-29T22:10:20.709Z,98249.13
2022-10-29T22:13:22.730Z,98257.66
2022-10-29T22:16:24.796Z,98259.00
2022-10-29T22:19:26.853Z,98261.13
2022-10-29T22:22:29.554Z,98274.44
2022-10-29T22:25:31.593Z,98266.44
2022-10-29T22:28:33.664Z,98268.31
2022-10-29T22:31:35.742Z,98270.47
2022-10-29T22:34:37.795Z,98268.84
2022-10-29T22:37:39.809Z,98273.91
2022-10-29T22:40:41.938Z,98274.97
2022-10-29T22:43:44.479Z,98270.97
2022-10-29T22:46:46.560Z,98272.03
2022-10-29T22:49:48.597Z,98266.16
2022-10-29T22:52:50.677Z,98260.50
2022-10-29T22:55:53.467Z,98271.41
2022-10-29T22:58:55.541Z,98268.25
2022-10-29T23:01:57.744Z,98272.75
2022-10-29T23:04:59.817Z,98286.09
2022-10-29T23:08:01.855Z,98290.84
2022-10-29T23:11:22.129Z,98306.25
2022-10-29T23:14:24.210Z,98298.38
2022-10-29T23:17:26.282Z,98301.50
2022-10-29T23:20:28.359Z,98306.38
2022-10-29T23:23:30.820Z,98295.16
2022-10-29T23:26:32.867Z,98298.84
2022-10-29T23:29:34.895Z,98295.34
2022-10-29T23:32:36.917Z,98294.50
2022-10-29T23:35:38.948Z,98298.16
2022-10-29T23:38:41.098Z,98296.06
2022-10-29T23:41:43.176Z,98294.09
2022-10-29T23:44:45.193Z,98304.97
2022-10-29T23:47:47.220Z,98308.13
2022-10-29T23:50:49.340Z,98312.81
2022-10-29T23:53:54.751Z,98308.19
2022-10-29T23:56:59.561Z,98313.34
